sensor_id;sensor_type;location;lat;lon;timestamp;P1;durP1;ratioP1;P2;durP2;ratioP2
2161;SDS011;1087;50.226;8.682;2022-09-28T00:00:53;4.10;;;3.20;;
2161;SDS011;1087;50.226;8.682;2022-09-28T00:03:19;3.77;;;3.10;;
2161;SDS011;1087;50.226;8.682;2022-09-28T00:05:45;4.13;;;3.77;;
2161;SDS011;1087;50.226;8.682;2022-09-28T00:08:10;5.03;;;3.17;;
2161;SDS011;1087;50.226;8.682;2022-09-28T00:10:35;4.53;;;3.30;;
2161;SDS011;1087;50.226;8.682;2022-09-28T00:13:01;3.70;;;3.10;;
2161;SDS011;1087;50.226;8.682;2022-09-28T00:15:27;4.17;;;3.23;;
2161;SDS011;1087;50.226;8.682;2022-09-28T00:17:53;3.93;;;2.97;;
2161;SDS011;1087;50.226;8.682;2022-09-28T00:20:18;3.47;;;3.17;;
2161;SDS011;1087;50.226;8.682;2022-09-28T00:22:44;4.30;;;3.70;;
2161;SDS011;1087;50.226;8.682;2022-09-28T00:25:09;4.23;;;3.23;;
2161;SDS011;1087;50.226;8.682;2022-09-28T00:27:35;3.23;;;2.93;;
2161;SDS011;1087;50.226;8.682;2022-09-28T00:30:00;3.43;;;3.13;;
2161;SDS011;1087;50.226;8.682;2022-09-28T00:32:26;3.73;;;3.37;;
2161;SDS011;1087;50.226;8.682;2022-09-28T00:34:52;4.23;;;3.40;;
2161;SDS011;1087;50.226;8.682;2022-09-28T00:37:18;3.63;;;2.93;;
2161;SDS011;1087;50.226;8.682;2022-09-28T00:39:44;3.37;;;3.07;;
2161;SDS011;1087;50.226;8.682;2022-09-28T00:42:19;4.33;;;3.60;;
2161;SDS011;1087;50.226;8.682;2022-09-28T00:44:48;3.30;;;3.03;;
2161;SDS011;1087;50.226;8.682;2022-09-28T00:47:15;3.53;;;3.23;;
2161;SDS011;1087;50.226;8.682;2022-09-28T00:54:57;3.30;;;3.10;;
2161;SDS011;1087;50.226;8.682;2022-09-28T00:57:26;3.63;;;3.33;;
2161;SDS011;1087;50.226;8.682;2022-09-28T00:59:53;3.17;;;2.97;;
2161;SDS011;1087;50.226;8.682;2022-09-28T01:02:19;3.57;;;3.27;;
2161;SDS011;1087;50.226;8.682;2022-09-28T01:04:45;5.40;;;3.97;;
2161;SDS011;1087;50.226;8.682;2022-09-28T01:07:11;3.97;;;3.57;;
2161;SDS011;1087;50.226;8.682;2022-09-28T01:09:38;3.40;;;3.10;;
2161;SDS011;1087;50.226;8.682;2022-09-28T01:12:04;3.73;;;3.30;;
2161;SDS011;1087;50.226;8.682;2022-09-28T01:14:31;4.13;;;3.50;;
2161;SDS011;1087;50.226;8.682;2022-09-28T01:17:03;4.67;;;3.70;;
2161;SDS011;1087;50.226;8.682;2022-09-28T01:25:23;4.23;;;3.40;;
2161;SDS011;1087;50.226;8.682;2022-09-28T01:28:04;3.90;;;3.50;;
2161;SDS011;1087;50.226;8.682;2022-09-28T01:30:40;3.97;;;3.67;;
2161;SDS011;1087;50.226;8.682;2022-09-28T01:33:12;3.83;;;3.43;;
2161;SDS011;1087;50.226;8.682;2022-09-28T01:40:42;5.33;;;4.20;;
2161;SDS011;1087;50.226;8.682;2022-09-28T01:43:10;3.80;;;3.50;;
2161;SDS011;1087;50.226;8.682;2022-09-28T01:45:43;5.60;;;5.10;;
2161;SDS011;1087;50.226;8.682;2022-09-28T01:48:12;4.30;;;3.77;;
2161;SDS011;1087;50.226;8.682;2022-09-28T01:50:42;5.03;;;4.53;;
2161;SDS011;1087;50.226;8.682;2022-09-28T01:53:16;4.03;;;3.73;;
2161;SDS011;1087;50.226;8.682;2022-09-28T01:55:47;5.40;;;4.90;;
2161;SDS011;1087;50.226;8.682;2022-09-28T02:01:17;5.20;;;3.83;;
2161;SDS011;1087;50.226;8.682;2022-09-28T02:03:51;5.33;;;4.60;;
2161;SDS011;1087;50.226;8.682;2022-09-28T02:06:25;5.43;;;4.60;;
2161;SDS011;1087;50.226;8.682;2022-09-28T02:08:58;4.37;;;4.07;;
2161;SDS011;1087;50.226;8.682;2022-09-28T02:11:29;4.60;;;4.20;;
2161;SDS011;1087;50.226;8.682;2022-09-28T02:13:58;4.57;;;3.97;;
2161;SDS011;1087;50.226;8.682;2022-09-28T02:16:32;5.77;;;5.27;;
2161;SDS011;1087;50.226;8.682;2022-09-28T02:21:36;6.10;;;5.50;;
2161;SDS011;1087;50.226;8.682;2022-09-28T02:24:14;4.77;;;4.37;;
2161;SDS011;1087;50.226;8.682;2022-09-28T02:26:45;4.10;;;3.70;;
2161;SDS011;1087;50.226;8.682;2022-09-28T02:29:13;4.07;;;3.77;;
2161;SDS011;1087;50.226;8.682;2022-09-28T02:31:39;4.40;;;4.00;;
2161;SDS011;1087;50.226;8.682;2022-09-28T02:34:04;3.77;;;3.47;;
2161;SDS011;1087;50.226;8.682;2022-09-28T02:36:30;3.33;;;3.13;;
2161;SDS011;1087;50.226;8.682;2022-09-28T02:38:57;3.17;;;2.97;;
2161;SDS011;1087;50.226;8.682;2022-09-28T02:41:26;3.27;;;2.93;;
2161;SDS011;1087;50.226;8.682;2022-09-28T02:49:36;3.20;;;2.53;;
2161;SDS011;1087;50.226;8.682;2022-09-28T02:52:24;2.30;;;1.90;;
2161;SDS011;1087;50.226;8.682;2022-09-28T02:55:52;2.13;;;1.90;;
2161;SDS011;1087;50.226;8.682;2022-09-28T03:01:14;1.50;;;1.40;;
2161;SDS011;1087;50.226;8.682;2022-09-28T03:03:51;1.50;;;1.40;;
2161;SDS011;1087;50.226;8.682;2022-09-28T03:06:21;1.57;;;1.47;;
2161;SDS011;1087;50.226;8.682;2022-09-28T03:09:00;1.97;;;1.70;;
2161;SDS011;1087;50.226;8.682;2022-09-28T03:11:35;1.90;;;1.80;;
2161;SDS011;1087;50.226;8.682;2022-09-28T03:14:06;2.17;;;1.73;;
2161;SDS011;1087;50.226;8.682;2022-09-28T03:16:33;4.30;;;2.30;;
2161;SDS011;1087;50.226;8.682;2022-09-28T03:18:59;2.70;;;1.87;;
2161;SDS011;1087;50.226;8.682;2022-09-28T03:21:24;3.53;;;2.27;;
2161;SDS011;1087;50.226;8.682;2022-09-28T03:23:50;3.03;;;2.70;;
2161;SDS011;1087;50.226;8.682;2022-09-28T03:26:15;2.93;;;2.37;;
2161;SDS011;1087;50.226;8.682;2022-09-28T03:28:41;1.60;;;1.50;;
2161;SDS011;1087;50.226;8.682;2022-09-28T03:31:07;6.40;;;3.03;;
2161;SDS011;1087;50.226;8.682;2022-09-28T03:33:32;3.77;;;2.00;;
2161;SDS011;1087;50.226;8.682;2022-09-28T03:35:58;1.37;;;1.27;;
2161;SDS011;1087;50.226;8.682;2022-09-28T03:38:24;1.00;;;0.90;;
2161;SDS011;1087;50.226;8.682;2022-09-28T03:40:53;1.30;;;1.03;;
2161;SDS011;1087;50.226;8.682;2022-09-28T03:43:20;1.10;;;1.00;;
2161;SDS011;1087;50.226;8.682;2022-09-28T03:45:53;1.20;;;1.10;;
2161;SDS011;1087;50.226;8.682;2022-09-28T03:48:24;2.40;;;1.13;;
2161;SDS011;1087;50.226;8.682;2022-09-28T03:50:51;1.30;;;1.20;;
2161;SDS011;1087;50.226;8.682;2022-09-28T03:53:21;1.40;;;1.10;;
2161;SDS011;1087;50.226;8.682;2022-09-28T03:55:47;1.60;;;1.20;;
2161;SDS011;1087;50.226;8.682;2022-09-28T03:58:14;1.37;;;0.90;;
2161;SDS011;1087;50.226;8.682;2022-09-28T04:00:40;2.80;;;1.40;;
2161;SDS011;1087;50.226;8.682;2022-09-28T04:03:06;2.97;;;1.17;;
2161;SDS011;1087;50.226;8.682;2022-09-28T04:05:32;1.67;;;1.30;;
2161;SDS011;1087;50.226;8.682;2022-09-28T04:07:58;1.30;;;1.17;;
2161;SDS011;1087;50.226;8.682;2022-09-28T04:10:24;2.13;;;1.40;;
2161;SDS011;1087;50.226;8.682;2022-09-28T04:12:52;1.10;;;0.97;;
2161;SDS011;1087;50.226;8.682;2022-09-28T04:15:22;1.67;;;1.00;;
2161;SDS011;1087;50.226;8.682;2022-09-28T04:17:48;1.13;;;1.03;;
2161;SDS011;1087;50.226;8.682;2022-09-28T04:20:14;1.20;;;1.10;;
2161;SDS011;1087;50.226;8.682;2022-09-28T04:22:39;1.50;;;1.40;;
2161;SDS011;1087;50.226;8.682;2022-09-28T04:25:05;1.67;;;1.40;;
2161;SDS011;1087;50.226;8.682;2022-09-28T04:27:31;1.87;;;1.30;;
2161;SDS011;1087;50.226;8.682;2022-09-28T04:30:15;1.70;;;1.50;;
2161;SDS011;1087;50.226;8.682;2022-09-28T04:32:41;1.50;;;1.40;;
2161;SDS011;1087;50.226;8.682;2022-09-28T04:35:08;1.90;;;1.80;;
2161;SDS011;1087;50.226;8.682;2022-09-28T04:37:35;2.07;;;1.50;;
2161;SDS011;1087;50.226;8.682;2022-09-28T04:40:01;1.50;;;1.20;;
2161;SDS011;1087;50.226;8.682;2022-09-28T04:42:27;1.20;;;1.10;;
2161;SDS011;1087;50.226;8.682;2022-09-28T04:44:52;1.00;;;1.00;;
2161;SDS011;1087;50.226;8.682;2022-09-28T04:47:18;2.93;;;1.43;;
2161;SDS011;1087;50.226;8.682;2022-09-28T04:49:43;2.10;;;1.50;;
2161;SDS011;1087;50.226;8.682;2022-09-28T04:52:10;1.40;;;1.30;;
2161;SDS011;1087;50.226;8.682;2022-09-28T04:54:36;1.67;;;1.57;;
2161;SDS011;1087;50.226;8.682;2022-09-28T04:57:01;1.97;;;1.67;;
2161;SDS011;1087;50.226;8.682;2022-09-28T04:59:28;1.80;;;1.70;;
2161;SDS011;1087;50.226;8.682;2022-09-28T05:01:54;2.00;;;1.80;;
2161;SDS011;1087;50.226;8.682;2022-09-28T05:04:19;1.30;;;1.20;;
2161;SDS011;1087;50.226;8.682;2022-09-28T05:06:45;1.83;;;1.17;;
2161;SDS011;1087;50.226;8.682;2022-09-28T05:09:11;1.60;;;1.50;;
2161;SDS011;1087;50.226;8.682;2022-09-28T05:11:36;2.20;;;1.47;;
2161;SDS011;1087;50.226;8.682;2022-09-28T05:14:02;1.50;;;1.40;;
2161;SDS011;1087;50.226;8.682;2022-09-28T05:16:27;2.10;;;1.20;;
2161;SDS011;1087;50.226;8.682;2022-09-28T05:18:55;1.93;;;1.60;;
2161;SDS011;1087;50.226;8.682;2022-09-28T05:21:21;2.40;;;1.70;;
2161;SDS011;1087;50.226;8.682;2022-09-28T05:23:49;2.20;;;1.20;;
2161;SDS011;1087;50.226;8.682;2022-09-28T05:26:15;8.60;;;3.40;;
2161;SDS011;1087;50.226;8.682;2022-09-28T05:28:40;1.90;;;1.70;;
2161;SDS011;1087;50.226;8.682;2022-09-28T05:31:06;1.90;;;1.80;;
2161;SDS011;1087;50.226;8.682;2022-09-28T05:33:32;2.90;;;2.17;;
2161;SDS011;1087;50.226;8.682;2022-09-28T05:35:57;1.93;;;1.77;;
2161;SDS011;1087;50.226;8.682;2022-09-28T05:38:23;3.80;;;2.30;;
2161;SDS011;1087;50.226;8.682;2022-09-28T05:40:49;3.17;;;2.07;;
2161;SDS011;1087;50.226;8.682;2022-09-28T05:43:15;2.93;;;2.00;;
2161;SDS011;1087;50.226;8.682;2022-09-28T05:45:40;2.00;;;1.90;;
2161;SDS011;1087;50.226;8.682;2022-09-28T05:48:06;2.07;;;1.90;;
2161;SDS011;1087;50.226;8.682;2022-09-28T05:50:32;2.60;;;1.97;;
2161;SDS011;1087;50.226;8.682;2022-09-28T05:52:58;3.60;;;1.70;;
2161;SDS011;1087;50.226;8.682;2022-09-28T05:55:28;2.20;;;2.00;;
2161;SDS011;1087;50.226;8.682;2022-09-28T05:57:56;2.33;;;2.13;;
2161;SDS011;1087;50.226;8.682;2022-09-28T06:00:23;2.50;;;2.30;;
2161;SDS011;1087;50.226;8.682;2022-09-28T06:02:59;2.63;;;2.43;;
2161;SDS011;1087;50.226;8.682;2022-09-28T06:05:27;2.80;;;2.60;;
2161;SDS011;1087;50.226;8.682;2022-09-28T06:07:56;6.00;;;3.50;;
2161;SDS011;1087;50.226;8.682;2022-09-28T06:10:23;7.17;;;3.40;;
2161;SDS011;1087;50.226;8.682;2022-09-28T06:12:53;4.17;;;3.87;;
2161;SDS011;1087;50.226;8.682;2022-09-28T06:15:20;2.73;;;2.53;;
2161;SDS011;1087;50.226;8.682;2022-09-28T06:17:47;3.13;;;2.93;;
2161;SDS011;1087;50.226;8.682;2022-09-28T06:20:19;5.07;;;2.60;;
2161;SDS011;1087;50.226;8.682;2022-09-28T06:22:44;6.10;;;4.70;;
2161;SDS011;1087;50.226;8.682;2022-09-28T06:25:10;2.93;;;2.73;;
2161;SDS011;1087;50.226;8.682;2022-09-28T06:27:35;3.10;;;2.50;;
2161;SDS011;1087;50.226;8.682;2022-09-28T06:30:01;3.00;;;2.60;;
2161;SDS011;1087;50.226;8.682;2022-09-28T06:32:27;3.50;;;3.20;;
2161;SDS011;1087;50.226;8.682;2022-09-28T06:34:53;3.80;;;3.40;;
2161;SDS011;1087;50.226;8.682;2022-09-28T06:37:19;3.30;;;2.87;;
2161;SDS011;1087;50.226;8.682;2022-09-28T06:39:45;3.87;;;3.10;;
2161;SDS011;1087;50.226;8.682;2022-09-28T06:42:10;2.87;;;2.63;;
2161;SDS011;1087;50.226;8.682;2022-09-28T06:44:36;3.50;;;2.90;;
2161;SDS011;1087;50.226;8.682;2022-09-28T06:47:01;3.23;;;2.93;;
2161;SDS011;1087;50.226;8.682;2022-09-28T06:49:27;2.77;;;2.53;;
2161;SDS011;1087;50.226;8.682;2022-09-28T06:51:54;4.37;;;2.60;;
2161;SDS011;1087;50.226;8.682;2022-09-28T06:54:19;3.97;;;3.20;;
2161;SDS011;1087;50.226;8.682;2022-09-28T06:56:49;3.00;;;2.80;;
2161;SDS011;1087;50.226;8.682;2022-09-28T06:59:16;3.70;;;2.83;;
2161;SDS011;1087;50.226;8.682;2022-09-28T07:01:41;4.77;;;4.07;;
2161;SDS011;1087;50.226;8.682;2022-09-28T07:04:07;4.20;;;3.90;;
2161;SDS011;1087;50.226;8.682;2022-09-28T07:06:32;3.27;;;2.97;;
2161;SDS011;1087;50.226;8.682;2022-09-28T07:08:58;4.40;;;4.00;;
2161;SDS011;1087;50.226;8.682;2022-09-28T07:11:26;3.00;;;2.80;;
2161;SDS011;1087;50.226;8.682;2022-09-28T07:13:53;3.47;;;3.17;;
2161;SDS011;1087;50.226;8.682;2022-09-28T07:16:19;3.20;;;2.57;;
2161;SDS011;1087;50.226;8.682;2022-09-28T07:18:44;4.20;;;2.63;;
2161;SDS011;1087;50.226;8.682;2022-09-28T07:21:10;3.37;;;2.60;;
2161;SDS011;1087;50.226;8.682;2022-09-28T07:23:36;2.90;;;2.70;;
2161;SDS011;1087;50.226;8.682;2022-09-28T07:26:03;2.03;;;1.90;;
2161;SDS011;1087;50.226;8.682;2022-09-28T07:28:29;3.63;;;2.20;;
2161;SDS011;1087;50.226;8.682;2022-09-28T07:30:56;2.20;;;2.00;;
2161;SDS011;1087;50.226;8.682;2022-09-28T07:33:22;2.40;;;2.20;;
2161;SDS011;1087;50.226;8.682;2022-09-28T07:35:54;2.70;;;2.03;;
2161;SDS011;1087;50.226;8.682;2022-09-28T07:38:20;4.00;;;2.80;;
2161;SDS011;1087;50.226;8.682;2022-09-28T07:40:45;3.40;;;3.10;;
2161;SDS011;1087;50.226;8.682;2022-09-28T07:43:29;2.60;;;2.40;;
2161;SDS011;1087;50.226;8.682;2022-09-28T07:45:55;2.40;;;2.00;;
2161;SDS011;1087;50.226;8.682;2022-09-28T07:48:21;2.60;;;2.40;;
2161;SDS011;1087;50.226;8.682;2022-09-28T07:50:50;3.03;;;2.57;;
2161;SDS011;1087;50.226;8.682;2022-09-28T07:53:18;4.33;;;2.40;;
2161;SDS011;1087;50.226;8.682;2022-09-28T07:55:55;3.43;;;2.17;;
2161;SDS011;1087;50.226;8.682;2022-09-28T07:58:26;2.53;;;1.80;;
2161;SDS011;1087;50.226;8.682;2022-09-28T08:00:52;2.10;;;2.00;;
2161;SDS011;1087;50.226;8.682;2022-09-28T08:03:18;2.37;;;2.27;;
2161;SDS011;1087;50.226;8.682;2022-09-28T08:05:46;4.00;;;2.33;;
2161;SDS011;1087;50.226;8.682;2022-09-28T08:08:12;4.00;;;2.60;;
2161;SDS011;1087;50.226;8.682;2022-09-28T08:10:41;3.73;;;2.40;;
2161;SDS011;1087;50.226;8.682;2022-09-28T08:13:07;3.50;;;2.07;;
2161;SDS011;1087;50.226;8.682;2022-09-28T08:15:32;1.57;;;1.47;;
2161;SDS011;1087;50.226;8.682;2022-09-28T08:18:05;2.60;;;2.33;;
2161;SDS011;1087;50.226;8.682;2022-09-28T08:20:31;1.60;;;1.50;;
2161;SDS011;1087;50.226;8.682;2022-09-28T08:23:16;2.80;;;2.10;;
2161;SDS011;1087;50.226;8.682;2022-09-28T08:25:45;2.20;;;2.00;;
2161;SDS011;1087;50.226;8.682;2022-09-28T08:28:12;2.17;;;1.70;;
2161;SDS011;1087;50.226;8.682;2022-09-28T08:30:39;2.13;;;2.03;;
2161;SDS011;1087;50.226;8.682;2022-09-28T08:33:05;2.63;;;1.80;;
2161;SDS011;1087;50.226;8.682;2022-09-28T08:35:31;2.57;;;1.70;;
2161;SDS011;1087;50.226;8.682;2022-09-28T08:37:57;5.40;;;2.33;;
2161;SDS011;1087;50.226;8.682;2022-09-28T08:40:23;2.23;;;2.13;;
2161;SDS011;1087;50.226;8.682;2022-09-28T08:42:56;2.03;;;1.93;;
2161;SDS011;1087;50.226;8.682;2022-09-28T08:45:27;3.40;;;3.10;;
2161;SDS011;1087;50.226;8.682;2022-09-28T08:48:01;7.10;;;4.90;;
2161;SDS011;1087;50.226;8.682;2022-09-28T08:51:43;3.67;;;3.20;;
2161;SDS011;1087;50.226;8.682;2022-09-28T08:57:02;3.53;;;3.10;;
2161;SDS011;1087;50.226;8.682;2022-09-28T08:59:40;3.03;;;2.70;;
2161;SDS011;1087;50.226;8.682;2022-09-28T09:02:33;3.00;;;1.80;;
2161;SDS011;1087;50.226;8.682;2022-09-28T09:05:04;3.17;;;2.70;;
2161;SDS011;1087;50.226;8.682;2022-09-28T09:10:40;2.30;;;2.10;;
2161;SDS011;1087;50.226;8.682;2022-09-28T09:13:26;3.60;;;1.47;;
2161;SDS011;1087;50.226;8.682;2022-09-28T09:18:49;2.40;;;2.30;;
2161;SDS011;1087;50.226;8.682;2022-09-28T09:23:56;3.00;;;2.70;;
2161;SDS011;1087;50.226;8.682;2022-09-28T09:26:34;2.67;;;2.43;;
2161;SDS011;1087;50.226;8.682;2022-09-28T09:37:00;3.87;;;2.30;;
2161;SDS011;1087;50.226;8.682;2022-09-28T09:45:06;1.43;;;1.33;;
2161;SDS011;1087;50.226;8.682;2022-09-28T09:47:43;3.03;;;1.40;;
2161;SDS011;1087;50.226;8.682;2022-09-28T09:50:31;3.00;;;2.17;;
2161;SDS011;1087;50.226;8.682;2022-09-28T09:55:50;2.70;;;2.50;;
2161;SDS011;1087;50.226;8.682;2022-09-28T10:01:09;2.80;;;2.60;;
2161;SDS011;1087;50.226;8.682;2022-09-28T10:03:38;1.70;;;1.60;;
2161;SDS011;1087;50.226;8.682;2022-09-28T10:06:08;1.57;;;1.47;;
2161;SDS011;1087;50.226;8.682;2022-09-28T10:08:43;2.20;;;2.00;;
2161;SDS011;1087;50.226;8.682;2022-09-28T10:11:17;2.60;;;1.93;;
2161;SDS011;1087;50.226;8.682;2022-09-28T10:13:46;3.40;;;3.10;;
2161;SDS011;1087;50.226;8.682;2022-09-28T10:16:12;2.80;;;2.60;;
2161;SDS011;1087;50.226;8.682;2022-09-28T10:18:41;2.87;;;2.67;;
2161;SDS011;1087;50.226;8.682;2022-09-28T10:21:10;2.07;;;1.97;;
2161;SDS011;1087;50.226;8.682;2022-09-28T10:23:37;2.13;;;1.93;;
2161;SDS011;1087;50.226;8.682;2022-09-28T10:26:06;1.43;;;1.33;;
2161;SDS011;1087;50.226;8.682;2022-09-28T10:28:42;2.60;;;2.10;;
2161;SDS011;1087;50.226;8.682;2022-09-28T10:33:58;2.33;;;1.47;;
2161;SDS011;1087;50.226;8.682;2022-09-28T10:36:23;1.40;;;1.10;;
2161;SDS011;1087;50.226;8.682;2022-09-28T10:38:50;2.23;;;1.70;;
2161;SDS011;1087;50.226;8.682;2022-09-28T10:41:17;1.93;;;1.43;;
2161;SDS011;1087;50.226;8.682;2022-09-28T10:43:51;2.07;;;1.40;;
2161;SDS011;1087;50.226;8.682;2022-09-28T10:46:30;2.77;;;1.20;;
2161;SDS011;1087;50.226;8.682;2022-09-28T10:48:58;1.60;;;1.50;;
2161;SDS011;1087;50.226;8.682;2022-09-28T10:56:43;1.87;;;1.03;;
2161;SDS011;1087;50.226;8.682;2022-09-28T10:59:22;1.13;;;1.03;;
2161;SDS011;1087;50.226;8.682;2022-09-28T11:01:58;2.60;;;1.20;;
2161;SDS011;1087;50.226;8.682;2022-09-28T11:04:40;1.10;;;1.00;;
2161;SDS011;1087;50.226;8.682;2022-09-28T11:07:15;1.50;;;1.00;;
2161;SDS011;1087;50.226;8.682;2022-09-28T11:09:45;1.63;;;0.90;;
2161;SDS011;1087;50.226;8.682;2022-09-28T11:12:13;1.80;;;1.07;;
2161;SDS011;1087;50.226;8.682;2022-09-28T11:14:42;1.30;;;1.20;;
2161;SDS011;1087;50.226;8.682;2022-09-28T11:19:51;1.30;;;1.20;;
2161;SDS011;1087;50.226;8.682;2022-09-28T11:22:19;2.00;;;1.13;;
2161;SDS011;1087;50.226;8.682;2022-09-28T11:24:49;1.33;;;1.23;;
2161;SDS011;1087;50.226;8.682;2022-09-28T11:27:18;1.50;;;1.20;;
2161;SDS011;1087;50.226;8.682;2022-09-28T11:29:55;1.87;;;1.47;;
2161;SDS011;1087;50.226;8.682;2022-09-28T11:32:29;2.17;;;1.00;;
2161;SDS011;1087;50.226;8.682;2022-09-28T11:35:05;1.50;;;1.40;;
2161;SDS011;1087;50.226;8.682;2022-09-28T11:37:43;2.00;;;1.30;;
2161;SDS011;1087;50.226;8.682;2022-09-28T11:40:28;2.17;;;1.47;;
2161;SDS011;1087;50.226;8.682;2022-09-28T11:48:21;2.00;;;1.27;;
2161;SDS011;1087;50.226;8.682;2022-09-28T11:50:52;1.67;;;1.57;;
2161;SDS011;1087;50.226;8.682;2022-09-28T11:55:57;1.90;;;1.30;;
2161;SDS011;1087;50.226;8.682;2022-09-28T11:58:30;1.43;;;1.30;;
2161;SDS011;1087;50.226;8.682;2022-09-28T12:04:04;1.20;;;1.10;;
2161;SDS011;1087;50.226;8.682;2022-09-28T12:06:52;1.33;;;1.20;;
2161;SDS011;1087;50.226;8.682;2022-09-28T12:14:57;3.03;;;1.60;;
2161;SDS011;1087;50.226;8.682;2022-09-28T12:17:47;1.53;;;1.43;;
2161;SDS011;1087;50.226;8.682;2022-09-28T12:20:19;1.70;;;1.50;;
2161;SDS011;1087;50.226;8.682;2022-09-28T12:23:25;1.20;;;1.10;;
2161;SDS011;1087;50.226;8.682;2022-09-28T12:25:57;1.70;;;1.60;;
2161;SDS011;1087;50.226;8.682;2022-09-28T12:28:40;1.90;;;1.30;;
2161;SDS011;1087;50.226;8.682;2022-09-28T12:34:16;1.50;;;1.40;;
2161;SDS011;1087;50.226;8.682;2022-09-28T12:36:48;1.40;;;1.30;;
2161;SDS011;1087;50.226;8.682;2022-09-28T12:48:31;1.47;;;1.37;;
2161;SDS011;1087;50.226;8.682;2022-09-28T12:51:40;1.43;;;1.23;;
2161;SDS011;1087;50.226;8.682;2022-09-28T13:00:17;1.87;;;0.97;;
2161;SDS011;1087;50.226;8.682;2022-09-28T13:08:29;1.17;;;1.07;;
2161;SDS011;1087;50.226;8.682;2022-09-28T13:17:13;1.20;;;1.10;;
2161;SDS011;1087;50.226;8.682;2022-09-28T13:20:16;1.27;;;0.90;;
2161;SDS011;1087;50.226;8.682;2022-09-28T13:25:46;1.53;;;1.00;;
2161;SDS011;1087;50.226;8.682;2022-09-28T13:28:17;1.20;;;1.10;;
2161;SDS011;1087;50.226;8.682;2022-09-28T13:30:45;2.50;;;1.10;;
2161;SDS011;1087;50.226;8.682;2022-09-28T13:33:19;2.20;;;1.10;;
2161;SDS011;1087;50.226;8.682;2022-09-28T13:36:34;1.17;;;1.07;;
2161;SDS011;1087;50.226;8.682;2022-09-28T13:38:48;2.83;;;1.10;;
2161;SDS011;1087;50.226;8.682;2022-09-28T13:41:16;1.83;;;1.07;;
2161;SDS011;1087;50.226;8.682;2022-09-28T13:54:12;1.73;;;1.10;;
2161;SDS011;1087;50.226;8.682;2022-09-28T13:56:43;1.30;;;1.00;;
2161;SDS011;1087;50.226;8.682;2022-09-28T14:02:20;1.87;;;1.10;;
2161;SDS011;1087;50.226;8.682;2022-09-28T14:05:05;1.90;;;1.43;;
2161;SDS011;1087;50.226;8.682;2022-09-28T14:07:55;1.20;;;1.03;;
2161;SDS011;1087;50.226;8.682;2022-09-28T14:10:51;1.63;;;1.20;;
2161;SDS011;1087;50.226;8.682;2022-09-28T14:19:31;1.77;;;1.00;;
2161;SDS011;1087;50.226;8.682;2022-09-28T14:32:49;1.30;;;1.13;;
2161;SDS011;1087;50.226;8.682;2022-09-28T14:35:29;1.87;;;1.07;;
2161;SDS011;1087;50.226;8.682;2022-09-28T14:37:58;1.30;;;1.20;;
2161;SDS011;1087;50.226;8.682;2022-09-28T14:43:34;1.20;;;1.10;;
2161;SDS011;1087;50.226;8.682;2022-09-28T14:48:51;1.33;;;1.23;;
2161;SDS011;1087;50.226;8.682;2022-09-28T14:54:40;1.57;;;1.40;;
2161;SDS011;1087;50.226;8.682;2022-09-28T14:59:16;1.33;;;1.23;;
2161;SDS011;1087;50.226;8.682;2022-09-28T15:01:50;2.50;;;1.00;;
2161;SDS011;1087;50.226;8.682;2022-09-28T15:04:21;1.37;;;1.20;;
2161;SDS011;1087;50.226;8.682;2022-09-28T15:06:51;1.00;;;0.90;;
2161;SDS011;1087;50.226;8.682;2022-09-28T15:09:31;1.33;;;1.23;;
2161;SDS011;1087;50.226;8.682;2022-09-28T15:17:29;1.30;;;1.10;;
2161;SDS011;1087;50.226;8.682;2022-09-28T15:22:54;2.33;;;1.30;;
2161;SDS011;1087;50.226;8.682;2022-09-28T15:25:22;2.40;;;1.67;;
2161;SDS011;1087;50.226;8.682;2022-09-28T15:27:51;2.27;;;1.00;;
2161;SDS011;1087;50.226;8.682;2022-09-28T15:32:50;1.30;;;1.20;;
2161;SDS011;1087;50.226;8.682;2022-09-28T15:35:19;1.63;;;1.50;;
2161;SDS011;1087;50.226;8.682;2022-09-28T15:37:50;1.43;;;1.30;;
2161;SDS011;1087;50.226;8.682;2022-09-28T15:40:20;2.07;;;1.60;;
2161;SDS011;1087;50.226;8.682;2022-09-28T15:43:01;2.33;;;1.27;;
2161;SDS011;1087;50.226;8.682;2022-09-28T15:45:45;1.40;;;1.30;;
2161;SDS011;1087;50.226;8.682;2022-09-28T15:48:38;1.57;;;1.43;;
2161;SDS011;1087;50.226;8.682;2022-09-28T15:51:10;2.73;;;1.40;;
2161;SDS011;1087;50.226;8.682;2022-09-28T15:53:57;1.10;;;1.00;;
2161;SDS011;1087;50.226;8.682;2022-09-28T15:56:35;1.53;;;1.23;;
2161;SDS011;1087;50.226;8.682;2022-09-28T15:59:33;2.33;;;1.30;;
2161;SDS011;1087;50.226;8.682;2022-09-28T16:02:09;0.87;;;0.80;;
2161;SDS011;1087;50.226;8.682;2022-09-28T16:04:49;1.20;;;1.00;;
2161;SDS011;1087;50.226;8.682;2022-09-28T16:12:45;1.83;;;1.10;;
2161;SDS011;1087;50.226;8.682;2022-09-28T16:15:27;1.30;;;1.20;;
2161;SDS011;1087;50.226;8.682;2022-09-28T16:17:59;1.40;;;1.30;;
2161;SDS011;1087;50.226;8.682;2022-09-28T16:20:40;1.30;;;1.20;;
2161;SDS011;1087;50.226;8.682;2022-09-28T16:31:03;2.10;;;1.70;;
2161;SDS011;1087;50.226;8.682;2022-09-28T16:33:44;2.63;;;1.50;;
2161;SDS011;1087;50.226;8.682;2022-09-28T16:36:18;3.13;;;1.50;;
2161;SDS011;1087;50.226;8.682;2022-09-28T16:38:44;2.00;;;1.80;;
2161;SDS011;1087;50.226;8.682;2022-09-28T16:41:11;1.70;;;1.60;;
2161;SDS011;1087;50.226;8.682;2022-09-28T16:43:38;1.83;;;1.43;;
2161;SDS011;1087;50.226;8.682;2022-09-28T16:46:08;1.57;;;1.40;;
2161;SDS011;1087;50.226;8.682;2022-09-28T16:48:36;2.90;;;1.63;;
2161;SDS011;1087;50.226;8.682;2022-09-28T16:51:12;1.53;;;1.43;;
2161;SDS011;1087;50.226;8.682;2022-09-28T16:53:38;1.57;;;1.47;;
2161;SDS011;1087;50.226;8.682;2022-09-28T16:56:23;3.73;;;2.50;;
2161;SDS011;1087;50.226;8.682;2022-09-28T16:58:50;2.40;;;1.57;;
2161;SDS011;1087;50.226;8.682;2022-09-28T17:01:15;1.50;;;1.40;;
2161;SDS011;1087;50.226;8.682;2022-09-28T17:03:41;2.33;;;1.53;;
2161;SDS011;1087;50.226;8.682;2022-09-28T17:06:10;2.90;;;1.83;;
2161;SDS011;1087;50.226;8.682;2022-09-28T17:08:37;2.37;;;1.70;;
2161;SDS011;1087;50.226;8.682;2022-09-28T17:11:03;1.70;;;1.60;;
2161;SDS011;1087;50.226;8.682;2022-09-28T17:13:29;5.60;;;1.50;;
2161;SDS011;1087;50.226;8.682;2022-09-28T17:16:00;2.47;;;1.47;;
2161;SDS011;1087;50.226;8.682;2022-09-28T17:18:28;4.83;;;2.50;;
2161;SDS011;1087;50.226;8.682;2022-09-28T17:20:55;4.73;;;3.07;;
2161;SDS011;1087;50.226;8.682;2022-09-28T17:23:23;5.70;;;3.10;;
2161;SDS011;1087;50.226;8.682;2022-09-28T17:25:48;5.10;;;3.53;;
2161;SDS011;1087;50.226;8.682;2022-09-28T17:28:25;3.03;;;2.60;;
2161;SDS011;1087;50.226;8.682;2022-09-28T17:30:54;4.63;;;2.83;;
2161;SDS011;1087;50.226;8.682;2022-09-28T17:33:19;4.50;;;3.27;;
2161;SDS011;1087;50.226;8.682;2022-09-28T17:35:45;7.70;;;5.47;;
2161;SDS011;1087;50.226;8.682;2022-09-28T17:38:11;3.07;;;2.77;;
2161;SDS011;1087;50.226;8.682;2022-09-28T17:40:38;2.50;;;2.17;;
2161;SDS011;1087;50.226;8.682;2022-09-28T17:43:05;3.03;;;2.57;;
2161;SDS011;1087;50.226;8.682;2022-09-28T17:45:31;2.30;;;2.10;;
2161;SDS011;1087;50.226;8.682;2022-09-28T17:47:58;8.00;;;4.43;;
2161;SDS011;1087;50.226;8.682;2022-09-28T17:50:25;2.63;;;2.43;;
2161;SDS011;1087;50.226;8.682;2022-09-28T17:52:53;3.80;;;3.40;;
2161;SDS011;1087;50.226;8.682;2022-09-28T17:55:23;3.73;;;3.43;;
2161;SDS011;1087;50.226;8.682;2022-09-28T17:57:53;5.43;;;3.77;;
2161;SDS011;1087;50.226;8.682;2022-09-28T18:00:20;9.87;;;4.73;;
2161;SDS011;1087;50.226;8.682;2022-09-28T18:02:47;4.47;;;2.50;;
2161;SDS011;1087;50.226;8.682;2022-09-28T18:05:12;3.10;;;2.00;;
2161;SDS011;1087;50.226;8.682;2022-09-28T18:07:43;2.87;;;2.50;;
2161;SDS011;1087;50.226;8.682;2022-09-28T18:10:13;2.50;;;1.97;;
2161;SDS011;1087;50.226;8.682;2022-09-28T18:12:40;2.20;;;1.77;;
2161;SDS011;1087;50.226;8.682;2022-09-28T18:15:07;2.57;;;2.03;;
2161;SDS011;1087;50.226;8.682;2022-09-28T18:17:33;3.30;;;3.10;;
2161;SDS011;1087;50.226;8.682;2022-09-28T18:19:59;5.00;;;3.20;;
2161;SDS011;1087;50.226;8.682;2022-09-28T18:22:25;3.93;;;2.87;;
2161;SDS011;1087;50.226;8.682;2022-09-28T18:24:50;5.83;;;4.87;;
2161;SDS011;1087;50.226;8.682;2022-09-28T18:27:16;7.80;;;6.73;;
2161;SDS011;1087;50.226;8.682;2022-09-28T18:29:41;9.30;;;8.00;;
2161;SDS011;1087;50.226;8.682;2022-09-28T18:32:07;11.17;;;8.40;;
2161;SDS011;1087;50.226;8.682;2022-09-28T18:34:36;7.97;;;5.53;;
2161;SDS011;1087;50.226;8.682;2022-09-28T18:37:02;4.73;;;4.23;;
2161;SDS011;1087;50.226;8.682;2022-09-28T18:39:28;6.27;;;4.33;;
2161;SDS011;1087;50.226;8.682;2022-09-28T18:41:54;5.17;;;3.83;;